Time;durP1;ratioP1;P1;durP2;ratioP2;P2;SDS_P1;SDS_P2;PMS_P1;PMS_P2;Temp;Humidity;BMP_temperature;BMP_pressure;BME280_temperature;BME280_humidity;BME280_pressure;Samples;Min_cycle;Max_cycle;Signal;HPM_P1;HPM_P2
2022/04/03 00:00:26;;;;;;;62.40;56.20;;;;;;;-0.97;87.09;97125.13;104506;1293;25379;-86
2022/04/03 00:03:06;;;;;;;56.80;51.10;;;;;;;-1.05;87.08;97118.88;104456;1293;25259;-86
2022/04/03 00:05:38;;;;;;;55.20;50.00;;;;;;;-1.07;86.91;97124.17;104506;1294;22831;-85
2022/04/03 00:08:12;;;;;;;60.20;54.30;;;;;;;-1.11;87.12;97125.92;104538;1294;22592;-85
2022/04/03 00:10:44;;;;;;;68.30;61.60;;;;;;;-1.17;87.04;97134.03;104536;1294;25327;-85
2022/04/03 00:13:12;;;;;;;53.00;47.80;;;;;;;-1.25;86.90;97134.66;104508;1293;24108;-86
2022/04/03 00:15:42;;;;;;;57.40;51.30;;;;;;;-1.29;86.96;97138.56;104462;1294;22658;-87
2022/04/03 00:18:11;;;;;;;72.90;65.00;;;;;;;-1.33;86.87;97140.55;104509;1293;22569;-87
2022/04/03 00:20:40;;;;;;;61.60;54.10;;;;;;;-1.38;86.96;97138.57;104325;1293;22563;-85
2022/04/03 00:23:09;;;;;;;58.50;48.80;;;;;;;-1.44;86.96;97138.86;104452;1294;25315;-86
2022/04/03 00:25:37;;;;;;;54.10;48.50;;;;;;;-1.49;86.83;97142.31;104492;1293;23113;-87
2022/04/03 00:28:06;;;;;;;49.90;44.40;;;;;;;-1.54;86.79;97141.19;104612;1293;22642;-85
2022/04/03 00:30:34;;;;;;;48.30;43.20;;;;;;;-1.57;86.76;97145.03;104698;1294;214885;-85
2022/04/03 00:33:02;;;;;;;51.20;45.90;;;;;;;-1.61;86.80;97142.81;104464;1293;22847;-85
2022/04/03 00:35:30;;;;;;;52.90;47.00;;;;;;;-1.65;86.89;97142.00;104365;1294;22717;-85
2022/04/03 00:37:58;;;;;;;47.90;43.20;;;;;;;-1.69;86.64;97141.13;104467;1294;22653;-85
2022/04/03 00:40:26;;;;;;;43.10;38.60;;;;;;;-1.73;86.63;97141.23;104512;1293;25691;-90
2022/04/03 00:42:55;;;;;;;44.30;39.90;;;;;;;-1.76;86.64;97140.96;104276;1294;25553;-89
2022/04/03 00:45:23;;;;;;;43.60;39.20;;;;;;;-1.80;86.56;97145.39;104353;1293;22729;-87
2022/04/03 00:47:54;;;;;;;46.30;41.40;;;;;;;-1.84;86.58;97144.41;104152;1294;22978;-86
2022/04/03 00:50:24;;;;;;;43.90;39.50;;;;;;;-1.88;86.67;97147.04;104432;1294;22590;-86
2022/04/03 00:52:52;;;;;;;40.30;36.00;;;;;;;-1.94;86.55;97149.80;104509;1294;22578;-85
2022/04/03 00:55:20;;;;;;;42.20;37.90;;;;;;;-1.96;86.60;97148.65;104426;1293;23976;-88
2022/04/03 00:57:48;;;;;;;32.00;26.90;;;;;;;-1.97;86.61;97148.02;104633;1293;22690;-86
2022/04/03 01:00:17;;;;;;;28.20;25.10;;;;;;;-1.97;86.45;97148.21;107488;1292;22596;-86
2022/04/03 01:03:10;;;;;;;28.80;25.70;;;;;;;-2.01;86.49;97145.83;107549;1293;22571;-87
2022/04/03 01:05:38;;;;;;;27.60;22.40;;;;;;;-2.06;86.35;97144.50;104879;1293;22655;-86
2022/04/03 01:08:07;;;;;;;25.30;22.20;;;;;;;-2.09;86.42;97144.29;105059;1293;22548;-87
2022/04/03 01:10:35;;;;;;;23.20;20.50;;;;;;;-2.12;86.37;97146.29;106169;1293;22710;-88
2022/04/03 01:13:03;;;;;;;29.10;26.00;;;;;;;-2.14;86.34;97143.34;104808;1293;22516;-89
2022/04/03 01:15:33;;;;;;;23.20;20.70;;;;;;;-2.17;86.34;97145.09;104412;1293;22591;-87
2022/04/03 01:18:01;;;;;;;25.40;21.50;;;;;;;-2.19;86.30;97141.79;104237;1294;25387;-87
2022/04/03 01:20:29;;;;;;;24.80;19.90;;;;;;;-2.23;86.38;97146.56;104458;1293;24362;-88
2022/04/03 01:22:58;;;;;;;26.10;20.10;;;;;;;-2.26;86.24;97149.82;104770;1294;22714;-87
2022/04/03 01:25:25;;;;;;;24.90;20.50;;;;;;;-2.27;86.17;97149.00;104765;1293;23952;-87
2022/04/03 01:27:53;;;;;;;28.40;21.30;;;;;;;-2.29;86.30;97149.39;104611;1294;22617;-87
2022/04/03 01:30:21;;;;;;;27.40;22.80;;;;;;;-2.35;86.21;97145.97;104598;1294;22701;-89
2022/04/03 01:32:49;;;;;;;29.30;26.20;;;;;;;-2.39;86.36;97147.45;104615;1294;25254;-88
2022/04/03 01:35:17;;;;;;;24.00;19.80;;;;;;;-2.42;86.19;97148.25;104501;1294;22755;-86
2022/04/03 01:37:45;;;;;;;24.20;18.70;;;;;;;-2.43;86.21;97150.61;104526;1292;24243;-88
2022/04/03 01:40:14;;;;;;;24.20;18.90;;;;;;;-2.43;86.07;97151.61;104463;1294;22809;-88
2022/04/03 01:42:42;;;;;;;25.00;19.40;;;;;;;-2.46;86.32;97156.41;104808;1294;22571;-85
2022/04/03 01:45:10;;;;;;;25.40;17.90;;;;;;;-2.50;86.20;97157.80;105648;1293;22857;-87
2022/04/03 01:47:38;;;;;;;21.40;18.00;;;;;;;-2.54;86.30;97154.97;105630;1293;25260;-85
2022/04/03 01:50:07;;;;;;;19.90;17.70;;;;;;;-2.56;86.23;97156.11;105063;1293;22504;-86
2022/04/03 01:52:34;;;;;;;33.10;27.80;;;;;;;-2.56;86.36;97158.34;104864;1293;25681;-89
2022/04/03 01:55:05;;;;;;;20.70;18.20;;;;;;;-2.56;86.34;97160.05;105224;1293;22561;-88
2022/04/03 01:57:32;;;;;;;21.20;17.80;;;;;;;-2.59;86.19;97165.10;105235;1293;25387;-87
2022/04/03 02:00:05;;;;;;;20.10;17.90;;;;;;;-2.61;86.33;97167.86;104564;1294;22644;-89
2022/04/03 02:02:37;;;;;;;21.50;19.20;;;;;;;-2.61;86.12;97172.71;105289;1294;22684;-88
2022/04/03 02:05:07;;;;;;;24.90;20.60;;;;;;;-2.64;86.12;97175.86;105427;1294;22504;-89
2022/04/03 02:07:35;;;;;;;22.50;19.80;;;;;;;-2.67;86.25;97176.97;105451;1294;22626;-88
2022/04/03 02:10:08;;;;;;;22.60;20.00;;;;;;;-2.71;86.27;97175.62;104919;1293;22561;-85
2022/04/03 02:12:37;;;;;;;21.30;19.20;;;;;;;-2.68;86.27;97181.79;106064;1293;22559;-88
2022/04/03 02:15:11;;;;;;;22.40;19.20;;;;;;;-2.68;86.22;97182.67;104698;1293;23099;-89
2022/04/03 02:17:40;;;;;;;27.80;22.00;;;;;;;-2.70;86.12;97182.48;104766;1292;22904;-87
2022/04/03 02:20:09;;;;;;;22.60;20.20;;;;;;;-2.75;86.19;97178.86;104658;1293;24799;-87
2022/04/03 02:22:37;;;;;;;20.40;18.20;;;;;;;-2.79;86.14;97181.88;104545;1293;22769;-90
2022/04/03 02:25:09;;;;;;;23.00;18.90;;;;;;;-2.81;86.23;97184.78;104505;1294;25951;-88
2022/04/03 02:27:39;;;;;;;24.00;20.40;;;;;;;-2.83;86.33;97186.23;104338;1293;24231;-88
2022/04/03 02:30:10;;;;;;;24.20;21.30;;;;;;;-2.85;86.30;97185.91;104474;1293;22786;-89
2022/04/03 02:32:40;;;;;;;24.00;21.50;;;;;;;-2.90;86.27;97184.85;104826;1294;22571;-86
2022/04/03 02:35:11;;;;;;;25.60;20.10;;;;;;;-2.92;86.33;97189.91;106402;1293;22152;-86
2022/04/03 02:37:40;;;;;;;21.10;18.70;;;;;;;-2.94;86.40;97188.98;105238;1293;22645;-88
2022/04/03 02:40:14;;;;;;;22.40;20.20;;;;;;;-2.93;86.31;97193.95;104232;1294;22722;-87
2022/04/03 02:42:42;;;;;;;24.00;21.50;;;;;;;-2.94;86.30;97195.50;104499;1293;22585;-88
2022/04/03 02:45:11;;;;;;;22.10;19.90;;;;;;;-2.98;86.44;97203.04;104276;1294;25390;-89
2022/04/03 02:47:39;;;;;;;24.70;19.70;;;;;;;-3.02;86.42;97203.45;104789;1294;23913;-88
2022/04/03 02:50:09;;;;;;;21.50;18.40;;;;;;;-3.04;86.58;97206.30;105481;1294;22651;-86
2022/04/03 02:52:37;;;;;;;22.20;19.10;;;;;;;-3.06;86.61;97206.78;104788;1294;24248;-89
2022/04/03 02:55:05;;;;;;;22.70;20.30;;;;;;;-3.09;86.52;97211.24;104533;1294;22578;-88
2022/04/03 02:57:33;;;;;;;20.90;18.60;;;;;;;-3.12;86.79;97214.14;104362;1293;25445;-87
2022/04/03 03:00:02;;;;;;;20.60;18.40;;;;;;;-3.13;86.65;97215.00;104423;1294;24406;-89
2022/04/03 03:02:31;;;;;;;22.80;20.10;;;;;;;-3.15;86.63;97218.07;104456;1294;22621;-87
2022/04/03 03:04:59;;;;;;;23.10;20.80;;;;;;;-3.18;86.61;97220.89;104538;1292;24247;-88
2022/04/03 03:07:38;;;;;;;24.20;21.50;;;;;;;-3.24;86.62;97222.02;104500;1294;22870;-88
2022/04/03 03:10:09;;;;;;;25.90;21.50;;;;;;;-3.30;86.66;97222.88;104381;1294;25401;-86
2022/04/03 03:12:38;;;;;;;22.70;20.40;;;;;;;-3.34;86.89;97228.27;104201;1294;25420;-88
2022/04/03 03:15:06;;;;;;;22.80;20.40;;;;;;;-3.38;86.77;97224.27;104435;1293;22561;-87
2022/04/03 03:17:34;;;;;;;23.10;20.80;;;;;;;-3.43;86.95;97230.46;104442;1294;22596;-86
2022/04/03 03:20:05;;;;;;;22.80;20.40;;;;;;;-3.47;87.10;97232.51;104356;1294;24368;-87
2022/04/03 03:22:35;;;;;;;26.90;19.10;;;;;;;-3.49;87.12;97231.73;104502;1294;23034;-87
2022/04/03 03:25:05;;;;;;;24.10;21.40;;;;;;;-3.50;87.25;97234.22;104406;1294;22620;-88
2022/04/03 03:27:34;;;;;;;23.20;20.00;;;;;;;-3.55;87.25;97235.38;104583;1293;23083;-86
2022/04/03 03:30:04;;;;;;;22.30;19.90;;;;;;;-3.58;87.31;97238.61;104636;1294;22553;-86
2022/04/03 03:32:32;;;;;;;21.50;19.30;;;;;;;-3.59;87.50;97238.36;104500;1294;25469;-86
2022/04/03 03:35:01;;;;;;;20.60;18.50;;;;;;;-3.59;87.49;97239.41;104825;1293;22767;-87
2022/04/03 03:37:29;;;;;;;23.00;19.00;;;;;;;-3.61;87.62;97238.95;104785;1293;22640;-87
2022/04/03 03:39:57;;;;;;;21.90;17.60;;;;;;;-3.63;87.73;97238.90;104529;1294;23428;-86
2022/04/03 03:42:25;;;;;;;21.40;17.80;;;;;;;-3.63;87.66;97241.74;104440;1294;25446;-87
2022/04/03 03:44:53;;;;;;;20.30;17.90;;;;;;;-3.62;87.66;97240.17;104522;1293;22713;-88
2022/04/03 03:47:22;;;;;;;21.50;18.90;;;;;;;-3.63;87.66;97243.31;104421;1294;22756;-87
2022/04/03 03:49:50;;;;;;;20.50;18.30;;;;;;;-3.65;87.67;97243.58;104334;1293;22575;-88
2022/04/03 03:52:18;;;;;;;18.50;16.70;;;;;;;-3.67;87.92;97249.08;104534;1294;24430;-86
2022/04/03 03:54:46;;;;;;;20.10;15.90;;;;;;;-3.67;87.77;97248.02;104433;1294;25437;-86
2022/04/03 03:57:15;;;;;;;17.50;15.60;;;;;;;-3.65;87.73;97248.48;104346;1294;22783;-86
2022/04/03 03:59:45;;;;;;;20.30;17.90;;;;;;;-3.66;87.73;97254.52;104483;1293;25229;-87
2022/04/03 04:02:13;;;;;;;17.50;15.60;;;;;;;-3.67;87.79;97256.82;104469;1294;25444;-86
2022/04/03 04:04:41;;;;;;;16.80;15.10;;;;;;;-3.68;87.60;97257.42;104570;1293;22675;-87
2022/04/03 04:07:09;;;;;;;17.50;15.60;;;;;;;-3.68;87.65;97257.23;104471;1293;23550;-86
2022/04/03 04:09:39;;;;;;;23.40;16.70;;;;;;;-3.69;87.67;97255.29;104448;1294;26030;-86
2022/04/03 04:12:08;;;;;;;18.10;16.20;;;;;;;-3.69;87.69;97261.85;104442;1293;25543;-86
2022/04/03 04:14:38;;;;;;;19.50;15.70;;;;;;;-3.70;87.50;97262.31;104340;1294;23499;-88
2022/04/03 04:17:08;;;;;;;18.70;16.80;;;;;;;-3.69;87.51;97266.80;104457;1294;24415;-87
2022/04/03 04:19:37;;;;;;;22.50;19.80;;;;;;;-3.69;87.46;97270.76;104420;1294;24135;-87
2022/04/03 04:22:05;;;;;;;22.00;18.50;;;;;;;-3.71;87.73;97274.08;104413;1294;22735;-88
2022/04/03 04:24:32;;;;;;;19.30;17.10;;;;;;;-3.74;87.56;97277.41;104136;1294;24121;-85
2022/04/03 04:27:01;;;;;;;21.00;17.50;;;;;;;-3.74;87.60;97281.89;104719;1294;24047;-85
2022/04/03 04:29:28;;;;;;;18.70;16.80;;;;;;;-3.73;87.49;97282.98;104860;1294;22792;-86
2022/04/03 04:31:56;;;;;;;19.50;17.40;;;;;;;-3.74;87.50;97286.27;105297;1294;23282;-85
2022/04/03 04:34:24;;;;;;;18.90;17.00;;;;;;;-3.77;87.67;97294.44;104520;1293;22600;-87
2022/04/03 04:36:52;;;;;;;18.60;16.50;;;;;;;-3.78;87.51;97295.48;104548;1293;23312;-88
2022/04/03 04:39:21;;;;;;;20.70;15.50;;;;;;;-3.78;87.51;97301.17;104286;1293;22775;-88
2022/04/03 04:41:49;;;;;;;20.10;18.00;;;;;;;-3.78;87.53;97304.33;104272;1294;22582;-87
2022/04/03 04:44:19;;;;;;;21.40;18.70;;;;;;;-3.79;87.60;97306.30;107271;1293;23177;-86
2022/04/03 04:46:47;;;;;;;20.80;18.60;;;;;;;-3.80;87.67;97309.73;107396;1292;22697;-85
2022/04/03 04:49:16;;;;;;;20.30;18.20;;;;;;;-3.78;87.64;97310.37;107540;1294;22679;-85
2022/04/03 04:51:45;;;;;;;21.10;18.00;;;;;;;-3.77;87.70;97311.37;106303;1294;22586;-87
2022/04/03 04:54:12;;;;;;;23.90;21.50;;;;;;;-3.75;87.73;97307.66;106416;1294;22651;-86
2022/04/03 04:56:41;;;;;;;20.50;17.60;;;;;;;-3.76;87.68;97313.75;106638;1294;22569;-87
2022/04/03 05:03:52;;;;;;;22.30;19.80;;;;;;;-3.73;87.68;97323.84;106074;1294;22725;-87
2022/04/03 05:06:23;;;;;;;21.80;19.20;;;;;;;-3.72;87.68;97329.33;104439;1294;25299;-87
2022/04/03 05:08:51;;;;;;;20.40;17.50;;;;;;;-3.74;87.61;97329.07;104336;1294;22561;-87
2022/04/03 05:11:20;;;;;;;23.20;19.10;;;;;;;-3.69;87.64;97337.12;104111;1294;26991;-86
2022/04/03 05:13:49;;;;;;;23.80;20.40;;;;;;;-3.67;87.57;97333.97;104514;1294;22721;-87
2022/04/03 05:16:17;;;;;;;18.70;16.80;;;;;;;-3.68;87.65;97340.67;104534;1294;25459;-86
2022/04/03 05:18:46;;;;;;;17.70;15.90;;;;;;;-3.69;87.76;97343.16;104416;1293;24324;-87
2022/04/03 05:21:14;;;;;;;19.50;17.40;;;;;;;-3.67;87.55;97346.49;104425;1294;25314;-85
2022/04/03 05:23:42;;;;;;;19.00;16.20;;;;;;;-3.65;87.59;97347.42;104481;1294;22560;-87
2022/04/03 05:26:10;;;;;;;20.00;17.50;;;;;;;-3.60;87.56;97351.46;104251;1294;22576;-87
2022/04/03 05:28:38;;;;;;;20.50;18.10;;;;;;;-3.59;87.48;97355.11;104420;1294;26151;-87
2022/04/03 05:31:26;;;;;;;21.40;19.20;;;;;;;-3.59;87.41;97360.00;104434;1294;24361;-88
2022/04/03 05:33:55;;;;;;;21.90;19.60;;;;;;;-3.58;87.22;97365.10;104438;1294;23563;-88
2022/04/03 05:36:23;;;;;;;24.00;21.40;;;;;;;-3.57;87.54;97367.19;104445;1294;25553;-87
2022/04/03 05:38:51;;;;;;;23.90;20.60;;;;;;;-3.57;87.27;97370.84;104427;1294;22573;-88
2022/04/03 05:41:19;;;;;;;29.10;22.90;;;;;;;-3.53;87.22;97374.92;104327;1294;22900;-88
2022/04/03 05:43:49;;;;;;;29.80;23.00;;;;;;;-3.49;87.16;97380.02;104426;1294;25505;-87
2022/04/03 05:46:17;;;;;;;27.70;22.90;;;;;;;-3.45;87.22;97381.02;104420;1294;22592;-89
2022/04/03 05:48:45;;;;;;;29.30;24.70;;;;;;;-3.44;87.08;97386.02;104374;1294;24459;-87
2022/04/03 05:51:13;;;;;;;42.80;33.90;;;;;;;-3.42;87.09;97388.73;104535;1294;24278;-86
2022/04/03 05:53:42;;;;;;;35.30;28.30;;;;;;;-3.42;86.87;97389.38;104516;1294;22591;-88
2022/04/03 05:56:10;;;;;;;45.20;35.50;;;;;;;-3.36;86.91;97393.33;104454;1293;25694;-87
2022/04/03 05:58:38;;;;;;;34.80;26.40;;;;;;;-3.35;86.67;97400.67;104551;1294;23186;-87
2022/04/03 06:01:06;;;;;;;26.40;20.60;;;;;;;-3.37;86.43;97405.41;104507;1293;22881;-88
2022/04/03 06:03:34;;;;;;;26.80;21.10;;;;;;;-3.35;86.43;97406.48;104515;1293;22651;-88
2022/04/03 06:06:02;;;;;;;24.20;19.70;;;;;;;-3.31;86.63;97405.58;104488;1293;25081;-89
2022/04/03 06:08:31;;;;;;;22.20;18.60;;;;;;;-3.29;86.31;97407.95;104704;1294;22579;-86
2022/04/03 06:10:58;;;;;;;24.10;19.80;;;;;;;-3.28;86.34;97410.66;105462;1294;23125;-86
2022/04/03 06:13:26;;;;;;;19.70;17.00;;;;;;;-3.21;86.25;97414.33;105375;1293;24369;-88
2022/04/03 06:15:54;;;;;;;22.60;20.20;;;;;;;-3.15;86.33;97421.55;104556;1294;22727;-88
2022/04/03 06:18:22;;;;;;;24.30;19.40;;;;;;;-3.15;85.90;97424.67;104348;1293;22611;-87
2022/04/03 06:20:51;;;;;;;20.40;17.00;;;;;;;-3.15;85.81;97423.02;104334;1293;25612;-88
2022/04/03 06:23:21;;;;;;;19.80;17.60;;;;;;;-3.11;85.91;97429.52;104455;1294;25314;-88
2022/04/03 06:25:53;;;;;;;19.60;16.90;;;;;;;-3.06;85.70;97431.96;104543;1294;23622;-87
2022/04/03 06:28:21;;;;;;;18.60;16.50;;;;;;;-3.08;85.21;97437.59;104458;1293;22676;-87
2022/04/03 06:30:51;;;;;;;21.60;19.30;;;;;;;-3.08;85.39;97438.77;104137;1294;24253;-85
2022/04/03 06:33:19;;;;;;;24.40;21.80;;;;;;;-3.04;85.44;97440.83;104607;1293;22650;-86
2022/04/03 06:35:47;;;;;;;23.00;20.20;;;;;;;-3.02;85.25;97442.67;104672;1294;22717;-86
2022/04/03 06:38:17;;;;;;;22.10;19.70;;;;;;;-3.02;85.36;97441.25;104690;1294;22510;-86
2022/04/03 06:40:54;;;;;;;23.10;17.70;;;;;;;-2.96;85.54;97443.52;105081;1294;22688;-88
2022/04/03 06:43:24;;;;;;;21.70;18.40;;;;;;;-2.94;84.99;97452.15;104558;1294;22716;-89
2022/04/03 06:45:54;;;;;;;21.50;18.50;;;;;;;-2.98;84.89;97449.02;104603;1293;24424;-88
2022/04/03 06:48:28;;;;;;;23.10;20.60;;;;;;;-2.99;84.66;97453.20;104498;1293;24156;-87
2022/04/03 06:51:01;;;;;;;19.40;17.40;;;;;;;-2.93;85.04;97454.20;104068;1294;24432;-86
2022/04/03 06:53:29;;;;;;;21.00;16.60;;;;;;;-2.83;85.26;97461.64;104432;1294;22787;-86
2022/04/03 06:55:58;;;;;;;20.30;18.20;;;;;;;-2.78;84.53;97463.88;104363;1294;24452;-88
2022/04/03 06:58:26;;;;;;;21.00;18.60;;;;;;;-2.78;84.47;97462.02;104426;1294;22746;-88
2022/04/03 07:00:54;;;;;;;21.20;18.70;;;;;;;-2.76;84.56;97468.77;104328;1294;25544;-85
2022/04/03 07:03:22;;;;;;;19.70;17.30;;;;;;;-2.71;84.43;97473.42;104533;1293;25455;-87
2022/04/03 07:05:51;;;;;;;19.60;17.60;;;;;;;-2.68;84.29;97468.71;104499;1293;22594;-87
2022/04/03 07:08:19;;;;;;;24.90;19.30;;;;;;;-2.62;84.60;97480.27;104371;1294;22710;-87
2022/04/03 07:10:47;;;;;;;20.40;17.80;;;;;;;-2.57;84.22;97482.55;104520;1294;22728;-87
2022/04/03 07:13:16;;;;;;;19.20;17.00;;;;;;;-2.48;84.43;97483.52;104435;1293;22579;-86
2022/04/03 07:15:43;;;;;;;22.50;20.30;;;;;;;-2.41;84.07;97486.25;104494;1293;25565;-87
2022/04/03 07:18:11;;;;;;;20.90;18.70;;;;;;;-2.41;83.50;97488.56;104381;1294;24490;-87
2022/04/03 07:20:39;;;;;;;22.80;20.50;;;;;;;-2.41;83.52;97489.55;104450;1294;22655;-86
2022/04/03 07:23:07;;;;;;;21.90;19.60;;;;;;;-2.36;83.62;97495.23;104454;1294;22726;-85
2022/04/03 07:25:35;;;;;;;20.50;18.50;;;;;;;-2.28;83.11;97495.27;104529;1293;25534;-87
2022/04/03 07:28:04;;;;;;;21.40;18.60;;;;;;;-2.28;82.74;97501.70;104349;1294;22576;-85
2022/04/03 07:30:32;;;;;;;18.80;16.90;;;;;;;-2.25;82.88;97503.15;104783;1292;22605;-89
2022/04/03 07:33:00;;;;;;;20.20;17.80;;;;;;;-2.24;82.39;97514.05;104661;1293;23995;-87
2022/04/03 07:35:28;;;;;;;21.10;19.00;;;;;;;-2.21;82.19;97518.61;104763;1294;24241;-86
2022/04/03 07:37:56;;;;;;;21.50;19.10;;;;;;;-2.17;82.33;97514.48;104879;1294;25375;-87
2022/04/03 07:40:25;;;;;;;21.90;19.60;;;;;;;-2.05;82.79;97517.85;104541;1294;25611;-89
2022/04/03 07:43:16;;;;;;;18.40;16.60;;;;;;;-2.00;81.73;97525.89;105155;1293;22866;-86
2022/04/03 07:45:45;;;;;;;20.00;17.90;;;;;;;-2.01;81.84;97524.35;104671;1294;22575;-86
2022/04/03 07:48:13;;;;;;;21.60;19.50;;;;;;;-1.95;82.18;97523.73;105063;1295;22579;-88
2022/04/03 07:50:43;;;;;;;21.70;18.70;;;;;;;-1.85;81.72;97532.02;104725;1294;25384;-87
2022/04/03 07:53:11;;;;;;;19.40;17.40;;;;;;;-1.77;81.38;97540.55;104917;1294;22698;-87
2022/04/03 07:55:39;;;;;;;20.40;18.30;;;;;;;-1.72;81.45;97539.45;104509;1294;23301;-88
2022/04/03 07:58:07;;;;;;;18.30;16.40;;;;;;;-1.67;80.77;97543.95;104500;1294;25397;-86
2022/04/03 08:00:35;;;;;;;22.30;18.40;;;;;;;-1.64;80.60;97545.34;104484;1294;22574;-87
2022/04/03 08:03:03;;;;;;;19.50;17.30;;;;;;;-1.65;80.83;97548.43;104619;1293;22640;-87
2022/04/03 08:05:31;;;;;;;25.00;20.20;;;;;;;-1.59;80.64;97551.20;104759;1294;22639;-87
2022/04/03 08:07:59;;;;;;;20.70;18.40;;;;;;;-1.50;80.53;97551.68;104718;1294;22884;-87
2022/04/03 08:10:27;;;;;;;24.10;21.60;;;;;;;-1.38;80.77;97560.14;104720;1293;22660;-89
2022/04/03 08:12:54;;;;;;;21.40;17.30;;;;;;;-1.27;80.50;97567.20;104628;1294;22732;-90
2022/04/03 08:15:23;;;;;;;19.60;17.00;;;;;;;-1.26;79.77;97566.48;104616;1294;24345;-89
2022/04/03 08:17:50;;;;;;;21.10;16.70;;;;;;;-1.23;79.60;97569.19;104570;1294;22566;-88
2022/04/03 08:20:19;;;;;;;19.70;16.70;;;;;;;-1.17;79.95;97568.79;104468;1294;25547;-78
2022/04/03 08:22:49;;;;;;;20.00;17.10;;;;;;;-1.16;78.71;97576.77;104554;1294;22578;-85
2022/04/03 08:25:18;;;;;;;26.70;19.00;;;;;;;-1.13;79.19;97576.94;104545;1294;22977;-84
2022/04/03 08:27:48;;;;;;;20.70;16.10;;;;;;;-1.05;78.32;97579.70;104651;1294;22587;-87
2022/04/03 08:30:24;;;;;;;18.90;15.50;;;;;;;-0.97;79.47;97579.61;104808;1294;25370;-86
2022/04/03 08:32:53;;;;;;;18.40;15.80;;;;;;;-0.67;79.33;97582.95;104779;1293;24246;-85
2022/04/03 08:35:24;;;;;;;18.70;16.60;;;;;;;-0.58;78.27;97591.56;105177;1293;25446;-87
2022/04/03 08:37:52;;;;;;;17.00;14.50;;;;;;;-0.53;78.36;97589.44;104771;1294;22562;-86
2022/04/03 08:40:22;;;;;;;18.60;16.80;;;;;;;-0.49;77.61;97595.93;104527;1294;24273;-84
2022/04/03 08:42:52;;;;;;;20.10;16.70;;;;;;;-0.43;78.30;97597.04;104518;1294;24237;-83
2022/04/03 08:45:22;;;;;;;20.50;16.30;;;;;;;-0.43;76.49;97599.74;104436;1293;22575;-82
2022/04/03 08:47:54;;;;;;;17.00;15.20;;;;;;;-0.45;76.65;97604.41;104584;1294;23025;-82
2022/04/03 08:50:28;;;;;;;18.30;15.70;;;;;;;-0.42;76.32;97603.67;104316;1294;22884;-85
2022/04/03 08:53:03;;;;;;;20.60;16.30;;;;;;;-0.38;76.09;97603.91;104376;1293;25474;-84
2022/04/03 08:55:31;;;;;;;;;;;;;;;-0.26;76.76;97604.88;104730;1293;24065;-83
2022/04/03 08:58:02;;;;;;;19.40;17.40;;;;;;;-0.15;76.27;97604.35;105821;1294;23328;-85
2022/04/03 09:00:34;;;;;;;17.50;15.70;;;;;;;-0.08;75.58;97603.16;106811;1293;22561;-88
2022/04/03 09:03:02;;;;;;;18.10;16.20;;;;;;;0.02;74.41;97604.73;106091;1293;22686;-92
2022/04/03 09:05:41;;;;;;;17.90;15.40;;;;;;;0.21;74.94;97610.34;105775;1293;25933;-88
2022/04/03 09:08:10;;;;;;;15.70;14.10;;;;;;;0.13;72.82;97613.75;106132;1293;23474;-87
2022/04/03 09:10:41;;;;;;;17.60;14.50;;;;;;;0.07;73.20;97618.46;105069;1293;22640;-91
2022/04/03 09:13:23;;;;;;;19.30;15.70;;;;;;;-0.00;71.89;97619.92;105180;1293;23494;-91
2022/04/03 09:15:50;;;;;;;18.40;16.30;;;;;;;-0.09;73.08;97612.98;105564;1293;24243;-87
2022/04/03 09:18:18;;;;;;;16.50;14.40;;;;;;;0.00;73.40;97621.64;105382;1293;25278;-90
2022/04/03 09:20:47;;;;;;;14.00;12.60;;;;;;;0.10;70.98;97631.30;104891;1294;25387;-90
2022/04/03 09:23:18;;;;;;;15.00;13.40;;;;;;;0.05;69.76;97635.02;104938;1294;22685;-91
2022/04/03 09:25:47;;;;;;;13.80;11.80;;;;;;;0.06;70.13;97634.83;104825;1293;24109;-92
2022/04/03 09:28:15;;;;;;;14.60;13.00;;;;;;;0.08;69.20;97634.27;104742;1294;24548;-91
2022/04/03 09:30:46;;;;;;;20.90;18.60;;;;;;;0.14;69.15;97636.35;104733;1295;22897;-91
2022/04/03 09:33:19;;;;;;;24.90;19.30;;;;;;;0.23;68.63;97639.52;105125;1294;23304;-90
2022/04/03 09:36:01;;;;;;;15.20;13.60;;;;;;;0.28;67.98;97643.73;104960;1293;22568;-89
2022/04/03 09:38:31;;;;;;;15.40;12.60;;;;;;;0.24;66.69;97647.75;105262;1293;22572;-87
2022/04/03 09:41:00;;;;;;;18.10;13.20;;;;;;;0.26;67.43;97643.81;105050;1293;25156;-87
2022/04/03 09:43:35;;;;;;;15.70;12.80;;;;;;;0.29;65.41;97652.55;105642;1294;22575;-89
2022/04/03 09:46:05;;;;;;;12.80;11.50;;;;;;;0.26;65.72;97650.17;106128;1293;22834;-88
2022/04/03 09:48:39;;;;;;;12.70;11.10;;;;;;;0.27;67.18;97652.48;105998;1293;22735;-89
2022/04/03 09:51:22;;;;;;;14.30;12.90;;;;;;;0.33;66.79;97651.80;105692;1294;22471;-88
2022/04/03 09:53:52;;;;;;;15.00;13.40;;;;;;;0.36;66.33;97656.13;105110;1293;25843;-87
2022/04/03 09:56:23;;;;;;;15.00;12.90;;;;;;;0.40;66.48;97663.67;104684;1293;23957;-86
2022/04/03 09:58:51;;;;;;;15.10;12.30;;;;;;;0.45;67.89;97659.77;104526;1294;22676;-86
2022/04/03 10:01:34;;;;;;;14.30;11.70;;;;;;;0.57;66.76;97656.53;104900;1293;22599;-88
2022/04/03 10:04:14;;;;;;;15.00;13.30;;;;;;;0.73;68.13;97663.84;105243;1294;22710;-87
2022/04/03 10:06:43;;;;;;;14.40;12.00;;;;;;;0.85;68.43;97661.20;104572;1293;23425;-88
2022/04/03 10:09:12;;;;;;;13.30;11.90;;;;;;;0.78;64.94;97673.64;104491;1294;22639;-88
2022/04/03 10:11:41;;;;;;;16.10;14.50;;;;;;;0.70;66.60;97668.32;105001;1293;23879;-85
2022/04/03 10:14:11;;;;;;;15.50;13.90;;;;;;;0.73;68.16;97671.11;104764;1294;24256;-85
2022/04/03 10:16:40;;;;;;;15.30;13.30;;;;;;;0.85;68.67;97666.73;104484;1293;25222;-85
2022/04/03 10:19:08;;;;;;;17.60;13.30;;;;;;;0.94;67.73;97667.35;104593;1293;25433;-88
2022/04/03 10:21:39;;;;;;;13.20;11.80;;;;;;;0.92;67.31;97673.05;105086;1293;22676;-88
2022/04/03 10:24:18;;;;;;;13.30;11.40;;;;;;;0.76;65.90;97678.11;105577;1293;25387;-87
2022/04/03 10:27:07;;;;;;;14.20;12.00;;;;;;;0.57;66.04;97676.05;105037;1293;22556;-86
2022/04/03 10:29:38;;;;;;;15.50;12.80;;;;;;;0.44;66.31;97675.19;105238;1294;23297;-88
2022/04/03 10:32:07;;;;;;;13.50;12.00;;;;;;;0.42;66.54;97677.29;105553;1293;22810;-88
2022/04/03 10:34:47;;;;;;;16.10;12.90;;;;;;;0.46;66.11;97678.82;105620;1293;22562;-86
2022/04/03 10:37:38;;;;;;;14.90;13.40;;;;;;;0.50;66.45;97671.67;105145;1293;25397;-85
2022/04/03 10:40:08;;;;;;;16.60;13.90;;;;;;;0.55;63.66;97674.27;105120;1293;22642;-86
2022/04/03 10:42:58;;;;;;;14.10;12.60;;;;;;;0.56;64.78;97679.83;104766;1294;24252;-87
2022/04/03 10:45:29;;;;;;;19.50;13.30;;;;;;;0.50;64.66;97678.16;104763;1293;24382;-87
2022/04/03 10:48:23;;;;;;;18.60;14.50;;;;;;;0.44;65.92;97673.07;104700;1293;24385;-88
2022/04/03 10:51:06;;;;;;;17.10;14.20;;;;;;;0.37;64.81;97677.30;104980;1294;22590;-84
2022/04/03 10:53:37;;;;;;;16.70;14.90;;;;;;;0.29;64.48;97680.60;105119;1291;25355;-84
2022/04/03 10:56:19;;;;;;;16.70;15.10;;;;;;;0.24;65.35;97674.42;105076;1294;26547;-85
2022/04/03 10:58:49;;;;;;;20.50;18.30;;;;;;;0.27;64.76;97677.27;105502;1291;22599;-83
2022/04/03 11:01:33;;;;;;;21.80;15.40;;;;;;;0.32;64.82;97679.54;105186;1291;25534;-85
2022/04/03 11:04:08;;;;;;;17.10;15.40;;;;;;;0.37;65.96;97687.95;105092;1291;24232;-86
2022/04/03 11:06:38;;;;;;;19.10;17.10;;;;;;;0.37;66.15;97683.45;105471;1291;24256;-86
2022/04/03 11:09:07;;;;;;;18.10;16.30;;;;;;;0.46;66.49;97684.25;105754;1291;22582;-88
2022/04/03 11:11:43;;;;;;;18.10;15.30;;;;;;;0.62;67.09;97686.09;106475;1291;23529;-85
2022/04/03 11:14:49;;;;;;;15.30;13.80;;;;;;;0.82;65.51;97699.81;107066;1291;22572;-85
2022/04/03 11:17:51;;;;;;;15.50;11.80;;;;;;;0.75;64.16;97706.69;106883;1291;24384;-84
2022/04/03 11:20:38;;;;;;;15.80;14.10;;;;;;;0.59;65.89;97707.57;106712;1290;22505;-84
2022/04/03 11:23:11;;;;;;;17.40;15.50;;;;;;;0.43;66.92;97699.13;107057;1291;22572;-86
2022/04/03 11:25:42;;;;;;;18.10;16.20;;;;;;;0.33;67.44;97697.47;106327;1291;26544;-84
2022/04/03 11:28:11;;;;;;;18.70;14.80;;;;;;;0.33;67.49;97703.31;105820;1291;23512;-87
2022/04/03 11:30:39;;;;;;;18.70;14.90;;;;;;;0.38;67.66;97697.73;105550;1291;22503;-87